Time;durP1;ratioP1;P1;durP2;ratioP2;P2;SDS_P1;SDS_P2;PMS_P1;PMS_P2;Temp;Humidity;BMP_temperature;BMP_pressure;BME280_temperature;BME280_humidity;BME280_pressure;Samples;Min_cycle;Max_cycle;Signal;HPM_P1;HPM_P2
2022/03/16 00:00:00;;;;;;;5.47;5.07;;;13.40;78.10;13.70;97002.00;;;;5034525;28;20213;-87
2022/03/16 00:02:28;;;;;;;5.70;5.23;;;13.40;78.20;13.70;97010.00;;;;5054166;28;20204;-87
2022/03/16 00:04:58;;;;;;;5.73;5.20;;;14.60;79.00;13.70;97002.00;;;;5053354;28;20200;-87
2022/03/16 00:07:25;;;;;;;6.53;5.90;;;13.60;78.40;13.70;96997.00;;;;5053591;28;20278;-87
2022/03/16 00:09:52;;;;;;;6.33;5.80;;;13.40;78.20;13.70;97007.00;;;;5053579;28;20220;-87
2022/03/16 00:12:19;;;;;;;7.90;5.97;;;14.30;78.50;13.70;96996.00;;;;5053759;28;20196;-87
2022/03/16 00:14:47;;;;;;;6.87;6.27;;;13.40;78.30;13.60;97006.00;;;;5053076;28;20768;-87
2022/03/16 00:17:16;;;;;;;7.37;6.63;;;13.90;78.40;13.70;96998.00;;;;5053501;28;20221;-88
2022/03/16 00:19:44;;;;;;;7.97;7.13;;;13.40;77.90;13.70;96997.00;;;;5053613;28;20215;-88
2022/03/16 00:22:13;;;;;;;7.17;6.47;;;13.40;78.00;13.60;97004.00;;;;5053893;28;20200;-88
2022/03/16 00:24:40;;;;;;;7.63;6.93;;;13.40;77.80;13.60;97008.00;;;;5053374;28;20200;-87
2022/03/16 00:27:07;;;;;;;7.13;6.53;;;13.90;78.20;13.60;96997.00;;;;5053369;28;20235;-87
2022/03/16 00:29:34;;;;;;;7.27;6.57;;;13.30;77.80;13.50;96991.00;;;;5053560;28;20234;-87
2022/03/16 00:32:02;;;;;;;6.53;6.03;;;13.30;77.80;13.50;97000.00;;;;5041401;28;20209;-87
2022/03/16 00:34:30;;;;;;;7.73;7.13;;;13.30;77.80;13.50;97003.00;;;;5034570;28;20255;-87
2022/03/16 00:36:57;;;;;;;6.63;6.10;;;14.40;78.60;13.50;97008.00;;;;5033408;28;20785;-87
2022/03/16 00:39:25;;;;;;;6.67;6.07;;;13.30;77.60;13.50;97018.00;;;;5033798;28;20559;-86
2022/03/16 00:41:52;;;;;;;7.70;7.00;;;13.20;77.50;13.50;97017.00;;;;5033460;28;20785;-86
2022/03/16 00:44:19;;;;;;;7.40;6.70;;;13.20;77.60;13.40;97017.00;;;;5033297;28;20559;-87
2022/03/16 00:46:47;;;;;;;7.30;6.60;;;13.20;77.70;13.40;97012.00;;;;5033104;28;20237;-86
2022/03/16 00:49:14;;;;;;;7.00;6.33;;;13.20;77.80;13.40;97020.00;;;;5032822;28;20211;-87
2022/03/16 00:51:41;;;;;;;8.10;6.87;;;13.20;77.80;13.40;97018.00;;;;5033204;28;20204;-87
2022/03/16 00:54:08;;;;;;;7.00;6.40;;;13.20;77.90;13.40;97013.00;;;;5033515;28;20197;-87
2022/03/16 00:56:37;;;;;;;7.00;6.40;;;13.20;77.70;13.40;97013.00;;;;5032963;28;20248;-87
2022/03/16 00:59:04;;;;;;;7.30;6.70;;;13.20;77.70;13.40;97009.00;;;;5033099;28;20205;-87
2022/03/16 01:01:31;;;;;;;7.57;6.90;;;13.20;77.70;13.40;97009.00;;;;5045895;28;20663;-87
2022/03/16 01:03:58;;;;;;;7.23;6.63;;;13.10;77.70;13.40;97004.00;;;;5052992;28;20204;-86
2022/03/16 01:06:26;;;;;;;7.77;7.07;;;13.10;77.90;13.40;97003.00;;;;5052507;28;20734;-87
2022/03/16 01:08:53;;;;;;;7.57;6.93;;;13.10;77.90;13.40;97005.00;;;;5052592;28;20666;-87
2022/03/16 01:11:20;;;;;;;8.10;7.40;;;13.10;77.70;13.40;97011.00;;;;5052678;28;20738;-86
2022/03/16 01:13:48;;;;;;;7.50;6.87;;;13.20;77.90;13.40;97004.00;;;;5052740;28;20256;-87
2022/03/16 01:16:15;;;;;;;8.87;8.07;;;13.20;78.00;13.40;97011.00;;;;5052533;28;20219;-87
2022/03/16 01:18:42;;;;;;;8.07;7.37;;;13.10;77.70;13.40;97010.00;;;;5052525;28;20671;-88
2022/03/16 01:21:10;;;;;;;7.97;7.27;;;13.20;77.90;13.40;97005.00;;;;5052763;28;20239;-87
2022/03/16 01:23:38;;;;;;;8.37;7.57;;;13.10;78.00;13.40;97005.00;;;;5052647;28;20192;-87
2022/03/16 01:26:06;;;;;;;7.87;7.13;;;13.10;77.80;13.40;97010.00;;;;5052511;28;20213;-87
2022/03/16 01:28:34;;;;;;;8.67;7.87;;;13.10;77.90;13.40;97004.00;;;;5052376;28;20204;-87
2022/03/16 01:31:03;;;;;;;8.83;7.93;;;13.10;78.10;13.40;97007.00;;;;5043148;28;20225;-87
2022/03/16 01:33:30;;;;;;;8.07;7.47;;;13.10;78.20;13.40;97002.00;;;;5032739;28;20198;-86
2022/03/16 01:35:58;;;;;;;8.70;8.00;;;13.10;78.00;13.40;97004.00;;;;5032122;28;20245;-87
2022/03/16 01:38:25;;;;;;;9.20;8.30;;;13.10;78.00;13.40;97003.00;;;;5032581;28;20680;-87
2022/03/16 01:40:53;;;;;;;8.47;7.73;;;13.10;77.80;13.40;97001.00;;;;5032578;28;20738;-87
2022/03/16 01:43:20;;;;;;;8.53;7.73;;;13.10;77.80;13.30;97003.00;;;;5032377;28;20204;-88
2022/03/16 01:45:48;;;;;;;8.77;7.97;;;13.00;77.70;13.30;97011.00;;;;5033921;28;20283;-87
2022/03/16 01:48:18;;;;;;;8.43;7.63;;;13.00;77.70;13.30;97005.00;;;;5034403;28;20198;-87
2022/03/16 01:50:45;;;;;;;9.20;8.40;;;13.00;77.80;13.30;97001.00;;;;5032605;28;20223;-87
2022/03/16 01:53:13;;;;;;;9.03;8.20;;;13.00;77.60;13.30;97004.00;;;;5033035;28;20197;-88
2022/03/16 01:55:41;;;;;;;8.57;7.83;;;13.00;77.70;13.30;96996.00;;;;5032241;28;20211;-87
2022/03/16 01:58:11;;;;;;;10.03;9.13;;;13.00;77.80;13.30;97008.00;;;;5032431;28;20205;-88
2022/03/16 02:00:38;;;;;;;9.33;8.53;;;13.00;77.90;13.30;97003.00;;;;5038358;28;20220;-87
2022/03/16 02:03:07;;;;;;;9.33;8.10;;;13.00;77.80;13.30;97017.00;;;;5056789;28;20205;-87
2022/03/16 02:05:35;;;;;;;9.20;8.40;;;13.30;77.90;13.30;97016.00;;;;5056172;28;20224;-88
2022/03/16 02:08:05;;;;;;;8.60;7.80;;;13.00;77.70;13.20;97019.00;;;;5056069;28;20193;-88
2022/03/16 02:10:32;;;;;;;8.30;7.60;;;13.00;77.80;13.20;97016.00;;;;5056084;28;20569;-88
2022/03/16 02:12:59;;;;;;;9.80;8.90;;;13.00;77.80;13.20;97020.00;;;;5055907;28;20697;-88
2022/03/16 02:15:27;;;;;;;8.77;7.97;;;12.90;77.70;13.20;97018.00;;;;5055926;28;20208;-87
2022/03/16 02:17:55;;;;;;;9.20;8.30;;;12.90;77.80;13.20;97018.00;;;;5056332;28;20216;-88
2022/03/16 02:20:23;;;;;;;10.87;8.53;;;12.90;77.70;13.20;97018.00;;;;5057440;28;20250;-87
2022/03/16 02:22:56;;;;;;;9.40;8.53;;;12.90;77.70;13.20;97020.00;;;;5055795;28;20196;-87
2022/03/16 02:25:24;;;;;;;9.57;8.67;;;13.10;78.10;13.20;97024.00;;;;5055641;28;20658;-87
2022/03/16 02:27:52;;;;;;;10.13;9.13;;;12.90;77.90;13.30;97030.00;;;;5055770;28;20216;-87
2022/03/16 02:30:20;;;;;;;11.27;10.17;;;12.90;77.90;13.20;97040.00;;;;5056013;28;20224;-87
2022/03/16 02:32:48;;;;;;;10.80;9.77;;;12.90;77.90;13.20;97036.00;;;;5055678;28;20200;-87
2022/03/16 02:35:16;;;;;;;12.30;11.00;;;12.90;77.70;13.20;97039.00;;;;5055514;28;20224;-88
2022/03/16 02:37:43;;;;;;;11.63;10.43;;;12.90;77.70;13.10;97029.00;;;;5055460;28;20610;-87
2022/03/16 02:40:18;;;;;;;10.80;9.70;;;12.90;77.60;13.00;97044.00;;;;5055661;28;20201;-88
2022/03/16 02:42:45;;;;;;;11.83;10.73;;;12.80;77.20;13.00;97045.00;;;;5055497;28;20553;-88
2022/03/16 02:45:12;;;;;;;10.60;9.60;;;12.70;77.10;12.90;97041.00;;;;5055175;28;20588;-87
2022/03/16 02:47:40;;;;;;;11.03;9.90;;;12.80;77.20;12.90;97051.00;;;;5055195;28;20221;-88
2022/03/16 02:50:08;;;;;;;10.53;9.53;;;12.70;76.90;12.90;97051.00;;;;5055342;28;20221;-88
2022/03/16 02:52:35;;;;;;;9.90;8.90;;;12.70;76.70;12.80;97059.00;;;;5055372;28;20200;-88
2022/03/16 02:55:04;;;;;;;10.13;9.07;;;12.80;76.80;12.80;97060.00;;;;5055217;28;20203;-88
2022/03/16 02:57:32;;;;;;;9.40;8.50;;;12.60;76.50;12.80;97073.00;;;;5055510;28;20216;-88
2022/03/16 02:59:59;;;;;;;10.13;8.43;;;12.60;76.40;12.70;97067.00;;;;5054689;28;20205;-88
2022/03/16 03:02:26;;;;;;;10.27;9.27;;;12.60;76.40;12.70;97074.00;;;;5035246;28;20578;-88
2022/03/16 03:04:53;;;;;;;9.47;8.57;;;12.50;76.20;12.60;97074.00;;;;5035137;28;20224;-86
2022/03/16 03:07:20;;;;;;;9.47;8.47;;;12.50;76.00;12.60;97080.00;;;;5035289;28;20232;-88
2022/03/16 03:09:47;;;;;;;10.20;9.20;;;12.50;76.00;12.60;97082.00;;;;5034834;28;20225;-88
2022/03/16 03:12:14;;;;;;;10.13;8.60;;;12.40;75.80;12.50;97086.00;;;;5034354;28;20203;-88
2022/03/16 03:14:43;;;;;;;10.30;9.30;;;12.40;75.80;12.50;97081.00;;;;5034489;28;20201;-87
2022/03/16 03:17:10;;;;;;;10.27;9.23;;;12.30;75.80;12.50;97081.00;;;;5034980;28;20308;-88
2022/03/16 03:19:37;;;;;;;10.53;9.43;;;12.30;75.80;12.40;97085.00;;;;5034675;28;20697;-88
2022/03/16 03:22:05;;;;;;;11.57;10.30;;;12.30;75.80;12.40;97085.00;;;;5034926;28;20198;-88
2022/03/16 03:24:32;;;;;;;11.83;10.57;;;12.20;75.60;12.30;97084.00;;;;5034809;28;20212;-87
2022/03/16 03:26:59;;;;;;;13.37;11.67;;;12.20;75.50;12.30;97091.00;;;;5034527;28;20217;-88
2022/03/16 03:29:26;;;;;;;13.60;11.80;;;12.10;75.20;12.20;97088.00;;;;5034968;28;20724;-88
2022/03/16 03:31:55;;;;;;;12.83;10.80;;;12.10;75.00;12.20;97083.00;;;;5050981;28;20196;-88
2022/03/16 03:34:22;;;;;;;13.70;11.43;;;12.10;75.10;12.10;97086.00;;;;5054556;28;20196;-88
2022/03/16 03:36:49;;;;;;;12.30;11.00;;;12.00;75.00;12.00;97084.00;;;;5054154;28;20224;-88
2022/03/16 03:39:16;;;;;;;13.50;11.93;;;12.00;74.90;12.00;97090.00;;;;5054483;28;20569;-87
2022/03/16 03:41:43;;;;;;;12.50;11.20;;;11.90;75.00;11.90;97088.00;;;;5054447;28;20196;-88
2022/03/16 03:44:10;;;;;;;12.40;10.63;;;12.00;75.10;11.90;97091.00;;;;5054481;28;20394;-88
2022/03/16 03:46:37;;;;;;;12.37;10.83;;;11.80;74.90;11.80;97079.00;;;;5054417;28;20295;-88
2022/03/16 03:49:05;;;;;;;12.23;10.70;;;11.80;75.00;11.70;97090.00;;;;5054375;28;20193;-88
2022/03/16 03:51:32;;;;;;;12.13;10.63;;;11.70;75.00;11.70;97097.00;;;;5054173;28;20232;-88
2022/03/16 03:54:02;;;;;;;13.37;11.43;;;11.60;75.10;11.70;97093.00;;;;5054605;28;20279;-89
2022/03/16 03:56:29;;;;;;;13.23;11.13;;;12.10;75.30;11.70;97096.00;;;;5053898;28;20231;-87
2022/03/16 03:58:56;;;;;;;11.53;10.33;;;11.80;75.10;11.60;97090.00;;;;5054250;28;20550;-87
2022/03/16 04:01:23;;;;;;;12.17;10.87;;;11.60;74.90;11.60;97099.00;;;;5041951;28;20209;-87
2022/03/16 04:03:51;;;;;;;13.23;11.40;;;11.60;75.50;11.60;97097.00;;;;5034092;28;20680;-88
2022/03/16 04:06:19;;;;;;;12.20;10.40;;;11.50;75.00;11.50;97096.00;;;;5035877;28;20220;-88
2022/03/16 04:08:46;;;;;;;11.67;10.23;;;11.50;75.00;11.50;97096.00;;;;5035617;28;20233;-88
2022/03/16 04:11:13;;;;;;;10.67;9.37;;;11.50;75.10;11.50;97100.00;;;;5034123;28;20224;-87
2022/03/16 04:13:40;;;;;;;13.03;10.43;;;11.40;75.20;11.50;97104.00;;;;5033872;28;20198;-87
2022/03/16 04:16:08;;;;;;;11.87;10.67;;;11.40;76.00;11.50;97103.00;;;;5033861;28;20217;-88
2022/03/16 04:18:35;;;;;;;11.60;10.40;;;11.40;75.20;11.40;97112.00;;;;5033927;28;20288;-87
2022/03/16 04:21:02;;;;;;;12.37;10.13;;;11.40;75.10;11.40;97104.00;;;;5033599;28;20672;-88
2022/03/16 04:23:30;;;;;;;12.10;10.80;;;11.30;75.00;11.30;97109.00;;;;5033468;28;20208;-88
2022/03/16 04:25:57;;;;;;;11.87;10.30;;;11.30;75.00;11.30;97104.00;;;;5033262;28;20228;-88
2022/03/16 04:28:24;;;;;;;12.57;10.53;;;11.30;75.10;11.30;97119.00;;;;5033782;28;20200;-88
2022/03/16 04:30:52;;;;;;;11.20;10.00;;;11.30;75.10;11.30;97110.00;;;;5041019;28;20227;-88
2022/03/16 04:33:19;;;;;;;11.20;9.80;;;11.20;75.00;11.30;97117.00;;;;5053470;28;20204;-88
2022/03/16 04:35:46;;;;;;;12.03;10.47;;;11.20;75.10;11.20;97115.00;;;;5053050;28;20207;-88
2022/03/16 04:38:13;;;;;;;13.03;10.43;;;11.20;75.20;11.20;97111.00;;;;5053360;28;20193;-87
2022/03/16 04:40:41;;;;;;;11.57;9.87;;;11.20;75.30;11.30;97129.00;;;;5053452;28;20596;-88
2022/03/16 04:43:08;;;;;;;13.17;10.90;;;11.20;75.30;11.30;97122.00;;;;5053340;28;20576;-87
2022/03/16 04:45:38;;;;;;;12.07;10.70;;;11.20;75.30;11.30;97116.00;;;;5052996;28;20204;-88
2022/03/16 04:48:08;;;;;;;10.77;9.67;;;11.20;75.20;11.20;97131.00;;;;5053376;28;20197;-88
2022/03/16 04:50:35;;;;;;;12.47;10.43;;;11.20;75.30;11.30;97137.00;;;;5052910;28;20252;-88
2022/03/16 04:53:02;;;;;;;11.80;10.60;;;11.10;75.40;11.30;97130.00;;;;5053428;28;20614;-88
2022/03/16 04:55:30;;;;;;;11.83;10.13;;;11.10;75.30;11.30;97136.00;;;;5052869;28;20212;-88
2022/03/16 04:58:00;;;;;;;13.40;11.40;;;11.10;75.40;11.30;97135.00;;;;5052918;28;20805;-88
2022/03/16 05:00:27;;;;;;;11.70;10.50;;;11.10;75.50;11.30;97137.00;;;;5048905;28;20202;-88
2022/03/16 05:02:54;;;;;;;12.03;10.17;;;11.10;75.70;11.30;97129.00;;;;5033101;28;20216;-88
2022/03/16 05:05:21;;;;;;;13.40;11.47;;;11.10;75.50;11.40;97137.00;;;;5032680;28;20201;-88
2022/03/16 05:07:48;;;;;;;11.83;10.57;;;11.20;75.60;11.40;97138.00;;;;5032654;28;20223;-88
2022/03/16 05:10:16;;;;;;;13.13;11.17;;;11.10;75.40;11.30;97132.00;;;;5032691;28;20875;-88
2022/03/16 05:12:45;;;;;;;12.50;10.53;;;11.20;75.50;11.30;97137.00;;;;5032621;28;20694;-88
2022/03/16 05:15:17;;;;;;;12.73;10.57;;;11.10;75.20;11.30;97145.00;;;;5032620;28;20205;-88
2022/03/16 05:17:45;;;;;;;13.30;11.37;;;11.20;75.20;11.30;97154.00;;;;5032344;28;20223;-88
2022/03/16 05:20:14;;;;;;;13.63;11.10;;;11.10;75.10;11.30;97152.00;;;;5032592;28;20201;-88
2022/03/16 05:22:47;;;;;;;13.70;11.83;;;11.10;75.10;11.30;97161.00;;;;5032573;28;20207;-88
2022/03/16 05:25:19;;;;;;;12.13;10.67;;;11.10;75.00;11.30;97164.00;;;;5032253;28;20284;-87
2022/03/16 05:27:46;;;;;;;12.83;10.77;;;11.10;75.00;11.30;97168.00;;;;5032283;28;20312;-87
2022/03/16 05:30:16;;;;;;;14.13;12.23;;;11.10;74.90;11.30;97182.00;;;;5034522;28;20200;-88
2022/03/16 05:32:44;;;;;;;13.43;11.30;;;11.10;74.80;11.30;97181.00;;;;5052351;28;20203;-88
2022/03/16 05:35:14;;;;;;;13.13;11.03;;;11.10;74.70;11.30;97185.00;;;;5052040;28;20208;-86
2022/03/16 05:37:44;;;;;;;14.30;11.77;;;11.20;74.80;11.20;97188.00;;;;5055111;22;20829;-85
2022/03/16 05:40:12;;;;;;;14.60;11.70;;;11.00;74.70;11.20;97190.00;;;;5034715;28;20280;-85
2022/03/16 05:42:40;;;;;;;15.10;11.00;;;11.00;74.70;11.20;97194.00;;;;5034325;28;20193;-86
2022/03/16 05:45:08;;;;;;;13.10;11.17;;;11.00;74.70;11.20;97197.00;;;;5032431;28;20626;-87
2022/03/16 05:47:37;;;;;;;14.03;11.37;;;11.00;75.60;11.10;97205.00;;;;5032411;28;20217;-86
2022/03/16 05:50:09;;;;;;;13.93;11.67;;;11.00;74.90;11.20;97201.00;;;;5032826;28;20699;-87
2022/03/16 05:52:40;;;;;;;14.57;11.90;;;10.90;75.00;11.20;97207.00;;;;5032388;28;20685;-86
2022/03/16 05:55:10;;;;;;;14.93;12.10;;;11.10;75.20;11.20;97202.00;;;;5031918;28;20201;-86
2022/03/16 05:57:39;;;;;;;14.90;11.93;;;10.90;75.30;11.20;97203.00;;;;5032118;28;20228;-86
2022/03/16 06:00:08;;;;;;;14.63;12.50;;;10.90;75.00;11.20;97206.00;;;;5032233;28;20676;-86
2022/03/16 06:02:36;;;;;;;13.53;11.83;;;11.00;75.20;11.20;97209.00;;;;5032489;28;20205;-86
2022/03/16 06:05:04;;;;;;;13.87;11.23;;;11.00;75.40;11.20;97216.00;;;;5032122;28;20204;-86
2022/03/16 06:07:31;;;;;;;13.80;11.90;;;11.00;75.50;11.30;97213.00;;;;5031809;28;20232;-87
2022/03/16 06:09:58;;;;;;;14.87;12.40;;;11.00;75.60;11.30;97221.00;;;;5032308;28;20212;-87
2022/03/16 06:12:25;;;;;;;14.63;11.97;;;11.00;75.70;11.30;97215.00;;;;5031982;28;20220;-86
2022/03/16 06:14:53;;;;;;;14.60;12.00;;;11.00;75.60;11.40;97212.00;;;;5031619;28;20203;-86
2022/03/16 06:17:20;;;;;;;13.13;11.60;;;11.10;75.70;11.40;97227.00;;;;5032083;28;20571;-86
2022/03/16 06:19:49;;;;;;;14.43;12.13;;;11.10;75.70;11.50;97231.00;;;;5032283;28;20575;-86
2022/03/16 06:22:16;;;;;;;15.03;12.60;;;11.10;75.40;11.50;97239.00;;;;5032029;28;20656;-86
2022/03/16 06:24:43;;;;;;;12.63;11.33;;;11.20;75.70;11.60;97236.00;;;;5032006;28;20292;-86
2022/03/16 06:27:10;;;;;;;13.73;12.30;;;11.20;75.80;11.60;97247.00;;;;5032161;28;20229;-86
2022/03/16 06:33:04;;;;;;;12.57;11.23;;;11.30;75.80;11.70;97255.00;;;;5006899;28;20201;-87
2022/03/16 06:35:33;;;;;;;15.07;12.40;;;11.60;75.90;11.70;97260.00;;;;5011875;28;20202;-86
2022/03/16 06:38:00;;;;;;;14.17;12.07;;;11.30;75.70;11.70;97238.00;;;;5012094;28;20253;-86
2022/03/16 06:40:27;;;;;;;13.80;12.30;;;11.40;75.50;11.80;97252.00;;;;5011877;28;20202;-86
2022/03/16 06:42:57;;;;;;;14.03;11.97;;;11.40;75.50;11.80;97266.00;;;;5012539;28;20208;-86
2022/03/16 06:45:27;;;;;;;13.60;11.90;;;11.40;75.50;11.80;97270.00;;;;5011946;28;20200;-86
2022/03/16 06:47:56;;;;;;;13.10;11.13;;;11.40;75.50;11.80;97279.00;;;;5012680;28;20218;-86
2022/03/16 06:50:24;;;;;;;13.70;11.60;;;11.50;75.40;11.90;97274.00;;;;5015473;28;20206;-86
2022/03/16 06:52:55;;;;;;;13.90;11.87;;;11.50;75.50;11.90;97269.00;;;;5015740;28;20708;-87
2022/03/16 06:55:22;;;;;;;13.30;11.43;;;11.50;75.30;11.90;97275.00;;;;5015193;28;20248;-87
2022/03/16 06:57:50;;;;;;;15.33;11.47;;;11.50;75.30;11.90;97274.00;;;;5015345;28;20222;-86
2022/03/16 07:00:17;;;;;;;12.47;11.13;;;11.50;75.30;12.00;97279.00;;;;5015433;28;20281;-86
2022/03/16 07:03:20;;;;;;;12.13;10.83;;;11.60;75.30;12.00;97276.00;;;;5015288;28;20200;-87
2022/03/16 07:05:47;;;;;;;11.43;10.13;;;11.60;75.10;12.00;97273.00;;;;5015468;28;20182;-87
2022/03/16 07:08:16;;;;;;;9.43;8.53;;;11.60;75.00;12.00;97281.00;;;;5015507;28;20224;-86
2022/03/16 07:10:45;;;;;;;10.10;9.10;;;11.60;74.50;12.00;97282.00;;;;5015057;28;20205;-86
2022/03/16 07:13:13;;;;;;;10.43;8.97;;;11.70;74.40;12.00;97283.00;;;;5015249;28;20220;-87
2022/03/16 07:15:42;;;;;;;10.60;9.50;;;11.60;74.10;12.00;97283.00;;;;5015077;28;20206;-87
2022/03/16 07:18:10;;;;;;;8.83;7.97;;;11.70;74.20;12.00;97278.00;;;;5014846;28;20230;-87
2022/03/16 07:20:37;;;;;;;9.33;8.37;;;11.60;73.80;12.00;97295.00;;;;5015038;28;20206;-86
2022/03/16 07:23:07;;;;;;;10.30;8.47;;;11.70;74.00;12.00;97299.00;;;;5015118;28;20201;-86
2022/03/16 07:25:37;;;;;;;8.97;8.17;;;11.70;74.00;12.00;97295.00;;;;5014853;28;20289;-87
2022/03/16 07:28:05;;;;;;;8.10;7.30;;;11.70;74.00;12.10;97301.00;;;;5014723;28;20222;-86
2022/03/16 07:30:33;;;;;;;7.70;7.00;;;11.70;74.10;12.20;97302.00;;;;5024535;28;20208;-86
2022/03/16 07:33:00;;;;;;;7.80;7.03;;;11.70;74.00;12.20;97298.00;;;;5053987;28;20221;-86
2022/03/16 07:35:27;;;;;;;8.37;7.63;;;11.80;74.10;12.30;97297.00;;;;5054282;28;20196;-86
2022/03/16 07:38:01;;;;;;;8.80;7.97;;;11.80;74.20;12.40;97297.00;;;;5054212;28;20224;-87
2022/03/16 07:40:30;;;;;;;7.27;6.67;;;11.90;74.50;12.50;97307.00;;;;5055074;28;20231;-86
2022/03/16 07:42:59;;;;;;;8.23;7.43;;;12.00;74.50;12.60;97310.00;;;;5054565;28;20226;-86
2022/03/16 07:45:26;;;;;;;8.13;7.13;;;12.00;74.40;12.60;97309.00;;;;5054493;28;20239;-86
2022/03/16 07:47:55;;;;;;;7.80;7.10;;;12.10;74.10;12.70;97308.00;;;;5054606;28;20227;-86
2022/03/16 07:50:29;;;;;;;7.77;7.07;;;12.10;73.60;12.70;97300.00;;;;5054374;28;20262;-86
2022/03/16 07:52:58;;;;;;;7.57;6.87;;;12.20;74.50;12.80;97301.00;;;;5054138;28;20258;-87
2022/03/16 07:55:25;;;;;;;8.23;7.43;;;12.20;73.90;12.80;97318.00;;;;5054184;28;20627;-87
2022/03/16 07:57:54;;;;;;;7.27;6.67;;;12.30;73.80;12.90;97316.00;;;;5054923;28;20311;-87
2022/03/16 08:00:24;;;;;;;7.90;7.20;;;12.30;73.40;12.90;97311.00;;;;5051559;28;20292;-86
2022/03/16 08:02:54;;;;;;;7.67;6.87;;;12.40;73.30;13.00;97319.00;;;;5034639;28;20296;-87
2022/03/16 08:05:25;;;;;;;7.83;7.13;;;12.30;73.40;13.00;97321.00;;;;5040508;28;20232;-87
2022/03/16 08:07:52;;;;;;;8.27;7.47;;;12.30;73.10;13.10;97316.00;;;;5034099;28;20227;-86
2022/03/16 08:10:19;;;;;;;7.77;7.07;;;12.50;72.80;13.20;97319.00;;;;5034785;28;20581;-90
2022/03/16 08:12:47;;;;;;;7.97;7.27;;;12.50;72.70;13.20;97318.00;;;;5034439;28;20311;-90
2022/03/16 08:15:19;;;;;;;10.00;7.43;;;12.70;72.90;13.20;97308.00;;;;5034683;28;20233;-90
2022/03/16 08:17:48;;;;;;;8.23;7.43;;;12.60;72.90;13.40;97317.00;;;;5035244;28;20217;-90
2022/03/16 08:20:18;;;;;;;7.67;6.97;;;13.40;73.30;13.40;97330.00;;;;5034287;28;20201;-88
2022/03/16 08:22:45;;;;;;;8.63;7.83;;;12.80;73.10;13.50;97334.00;;;;5034080;28;20243;-89
2022/03/16 08:25:13;;;;;;;8.40;7.63;;;12.80;72.90;13.50;97335.00;;;;5034073;28;20572;-89
2022/03/16 08:27:40;;;;;;;7.90;7.20;;;12.90;72.80;13.60;97334.00;;;;5034077;28;20225;-88
2022/03/16 08:30:09;;;;;;;7.70;7.00;;;13.10;72.30;13.70;97342.00;;;;5035998;28;20288;-89
2022/03/16 08:32:37;;;;;;;8.13;7.43;;;13.00;72.00;13.70;97348.00;;;;5053810;28;20224;-89
2022/03/16 08:35:07;;;;;;;7.07;6.37;;;13.00;72.10;13.80;97340.00;;;;5053765;28;20197;-89
2022/03/16 08:37:34;;;;;;;8.03;7.33;;;13.10;72.10;13.80;97342.00;;;;5053295;28;20236;-88
2022/03/16 08:40:02;;;;;;;8.10;7.40;;;13.20;72.00;13.90;97347.00;;;;5053494;28;20686;-89
2022/03/16 08:42:29;;;;;;;8.50;7.70;;;13.20;71.20;13.90;97344.00;;;;5053563;28;20200;-89
2022/03/16 08:44:56;;;;;;;7.77;7.07;;;13.20;71.30;13.90;97333.00;;;;5053262;28;20193;-89
2022/03/16 08:47:23;;;;;;;8.17;7.37;;;13.20;71.50;14.00;97339.00;;;;5053235;28;20729;-88
2022/03/16 08:49:54;;;;;;;8.60;7.70;;;13.30;71.40;14.20;97331.00;;;;5053716;28;20291;-89
2022/03/16 08:52:23;;;;;;;7.70;7.00;;;13.50;71.60;14.30;97344.00;;;;5053956;28;20314;-89
2022/03/16 08:54:51;;;;;;;7.90;7.20;;;13.60;72.10;14.50;97341.00;;;;5058427;28;20197;-89
2022/03/16 08:57:22;;;;;;;8.83;8.03;;;13.60;72.30;14.70;97336.00;;;;5059965;28;20216;-89
2022/03/16 08:59:50;;;;;;;9.47;8.47;;;13.80;72.80;14.90;97351.00;;;;5057249;28;20196;-89
2022/03/16 09:02:17;;;;;;;9.30;8.40;;;14.10;73.50;15.20;97354.00;;;;5059480;28;20735;-89
2022/03/16 09:04:44;;;;;;;9.10;8.20;;;14.20;73.30;15.40;97354.00;;;;5057777;28;20235;-89
2022/03/16 09:07:11;;;;;;;10.57;8.90;;;14.50;71.90;15.60;97350.00;;;;5054107;28;20212;-89
2022/03/16 09:09:41;;;;;;;8.70;7.90;;;14.70;71.40;15.80;97343.00;;;;5053762;28;20208;-89
2022/03/16 09:12:09;;;;;;;9.20;8.30;;;15.00;71.60;16.10;97353.00;;;;5053737;28;20216;-88
2022/03/16 09:14:36;;;;;;;9.30;8.40;;;15.40;70.70;16.30;97351.00;;;;5053595;28;20621;-89
2022/03/16 09:17:03;;;;;;;8.67;7.90;;;15.60;70.50;16.50;97355.00;;;;5054125;28;20212;-88
2022/03/16 09:19:31;;;;;;;8.73;7.93;;;16.00;70.30;16.70;97348.00;;;;5052951;28;20196;-89
2022/03/16 09:22:00;;;;;;;9.13;8.33;;;16.40;69.80;16.90;97349.00;;;;5053358;28;20232;-88
2022/03/16 09:24:27;;;;;;;8.13;7.30;;;16.80;68.30;17.10;97350.00;;;;5053252;28;20197;-89
2022/03/16 09:26:59;;;;;;;8.73;7.93;;;17.10;68.00;17.30;97347.00;;;;5053516;28;20678;-89
2022/03/16 09:29:28;;;;;;;9.27;8.43;;;17.40;67.10;17.50;97359.00;;;;5052742;28;20284;-89
2022/03/16 09:31:55;;;;;;;9.27;8.47;;;17.60;66.00;17.70;97364.00;;;;5036246;28;20228;-89
2022/03/16 09:34:22;;;;;;;9.37;8.47;;;17.90;63.80;17.70;97364.00;;;;5033168;28;20288;-88
2022/03/16 09:36:49;;;;;;;8.37;7.67;;;17.90;63.30;17.80;97365.00;;;;5032724;28;20221;-89
2022/03/16 09:39:17;;;;;;;8.83;8.03;;;18.10;62.40;17.80;97358.00;;;;5033281;28;20276;-89
2022/03/16 09:41:44;;;;;;;9.00;8.20;;;18.00;62.10;17.90;97349.00;;;;5032772;28;20201;-89
2022/03/16 09:44:15;;;;;;;8.40;7.60;;;18.00;62.00;18.00;97367.00;;;;5032576;28;20671;-89
2022/03/16 09:46:46;;;;;;;9.83;8.93;;;18.20;62.50;18.20;97356.00;;;;5032417;28;20270;-89
2022/03/16 09:49:15;;;;;;;8.40;7.70;;;18.10;62.40;18.40;97358.00;;;;5033582;28;20695;-89
2022/03/16 09:51:42;;;;;;;9.03;8.27;;;18.20;62.10;18.50;97358.00;;;;5032680;28;20239;-89
2022/03/16 09:54:09;;;;;;;8.73;7.97;;;18.20;60.10;18.60;97357.00;;;;5032877;28;20205;-89
2022/03/16 09:56:38;;;;;;;8.63;7.93;;;18.20;59.40;18.70;97352.00;;;;5033527;28;20594;-89
2022/03/16 09:59:05;;;;;;;9.50;8.70;;;18.30;60.10;18.70;97355.00;;;;5032413;28;20199;-89
2022/03/16 10:01:35;;;;;;;9.17;8.37;;;18.20;59.20;18.80;97354.00;;;;5032709;28;20297;-88
2022/03/16 10:04:03;;;;;;;7.83;7.13;;;18.30;60.20;18.90;97347.00;;;;5032770;28;20738;-88
2022/03/16 10:06:30;;;;;;;9.60;8.70;;;18.30;60.80;18.90;97345.00;;;;5032992;28;20243;-89
2022/03/16 10:14:38;;;;;;;9.83;8.93;;;18.60;58.30;18.80;97356.00;;;;5037095;28;20201;-89
2022/03/16 10:19:54;;;;;;;9.33;8.43;;;18.60;58.40;18.70;97355.00;;;;5036654;28;20271;-89
2022/03/16 10:22:30;;;;;;;8.70;7.80;;;18.50;58.00;18.60;97355.00;;;;5035641;28;20800;-89
2022/03/16 10:25:02;;;;;;;8.80;7.90;;;18.50;57.80;18.60;97354.00;;;;5039923;28;20300;-89
2022/03/16 10:27:38;;;;;;;8.67;7.87;;;18.50;56.80;18.50;97344.00;;;;5039419;28;20225;-89
2022/03/16 10:30:09;;;;;;;9.00;8.20;;;18.50;57.70;18.40;97343.00;;;;5041756;28;20231;-88
2022/03/16 10:32:37;;;;;;;8.83;7.93;;;18.40;57.70;18.40;97349.00;;;;5056535;28;20254;-89
2022/03/16 10:35:05;;;;;;;9.33;8.53;;;18.40;57.80;18.30;97340.00;;;;5056164;28;20592;-89
2022/03/16 10:37:37;;;;;;;10.13;8.77;;;18.30;57.20;18.20;97341.00;;;;5055883;28;20226;-88
2022/03/16 10:40:18;;;;;;;10.47;9.50;;;18.30;57.20;18.10;97332.00;;;;5055954;28;20300;-89
2022/03/16 10:48:19;;;;;;;9.47;8.57;;;18.00;57.40;17.80;97329.00;;;;5055734;28;20223;-89
2022/03/16 10:50:49;;;;;;;9.63;8.77;;;17.90;57.70;17.80;97328.00;;;;5055805;28;20199;-88
2022/03/16 10:53:18;;;;;;;9.03;8.10;;;17.80;57.70;17.80;97331.00;;;;5055412;28;20279;-89
2022/03/16 10:55:47;;;;;;;9.67;8.77;;;17.70;57.80;17.80;97325.00;;;;5055356;28;20570;-89
2022/03/16 10:58:19;;;;;;;9.57;8.63;;;17.60;57.80;17.80;97326.00;;;;5057141;28;20883;-88
2022/03/16 11:00:47;;;;;;;10.53;9.53;;;17.60;58.20;17.80;97338.00;;;;5048498;28;20731;-89
2022/03/16 11:03:18;;;;;;;9.37;8.57;;;17.60;58.10;17.80;97327.00;;;;5035232;28;20212;-89
2022/03/16 11:05:46;;;;;;;9.63;8.73;;;17.50;58.00;17.70;97320.00;;;;5035367;28;20197;-89
2022/03/16 11:08:15;;;;;;;9.13;8.33;;;17.40;57.90;17.70;97317.00;;;;5036386;28;20636;-89